sensor_id;sensor_type;location;lat;lon;timestamp;temperature;humidity
4245;DHT22;2136;48.502;9.194;2023-12-04T00:00:02;-3.30;68.40
4245;DHT22;2136;48.502;9.194;2023-12-04T00:02:30;-3.40;68.40
4245;DHT22;2136;48.502;9.194;2023-12-04T00:04:57;-3.40;68.50
4245;DHT22;2136;48.502;9.194;2023-12-04T00:07:23;-3.40;68.50
4245;DHT22;2136;48.502;9.194;2023-12-04T00:09:50;-3.50;68.50
4245;DHT22;2136;48.502;9.194;2023-12-04T00:12:18;-3.50;68.70
4245;DHT22;2136;48.502;9.194;2023-12-04T00:14:45;-3.50;68.50
4245;DHT22;2136;48.502;9.194;2023-12-04T00:17:12;-3.60;68.40
4245;DHT22;2136;48.502;9.194;2023-12-04T00:19:39;-3.60;68.20
4245;DHT22;2136;48.502;9.194;2023-12-04T00:22:06;-3.60;68.10
4245;DHT22;2136;48.502;9.194;2023-12-04T00:24:32;-3.70;67.70
4245;DHT22;2136;48.502;9.194;2023-12-04T00:26:59;-3.70;67.40
4245;DHT22;2136;48.502;9.194;2023-12-04T00:29:27;-3.80;67.50
4245;DHT22;2136;48.502;9.194;2023-12-04T00:31:54;-3.80;67.80
4245;DHT22;2136;48.502;9.194;2023-12-04T00:34:22;-3.90;68.00
4245;DHT22;2136;48.502;9.194;2023-12-04T00:36:49;-3.90;68.00
4245;DHT22;2136;48.502;9.194;2023-12-04T00:39:16;-3.90;68.00
4245;DHT22;2136;48.502;9.194;2023-12-04T00:41:42;-4.00;68.00
4245;DHT22;2136;48.502;9.194;2023-12-04T00:44:09;-4.00;68.00
4245;DHT22;2136;48.502;9.194;2023-12-04T00:46:37;-4.10;68.00
4245;DHT22;2136;48.502;9.194;2023-12-04T00:49:04;-4.10;68.20
4245;DHT22;2136;48.502;9.194;2023-12-04T00:51:37;-4.10;68.50
4245;DHT22;2136;48.502;9.194;2023-12-04T00:54:04;-4.20;68.60
4245;DHT22;2136;48.502;9.194;2023-12-04T00:56:31;-4.10;68.70
4245;DHT22;2136;48.502;9.194;2023-12-04T00:58:57;-4.20;68.70
4245;DHT22;2136;48.502;9.194;2023-12-04T01:01:24;-4.20;68.80
4245;DHT22;2136;48.502;9.194;2023-12-04T01:03:52;-4.20;68.80
4245;DHT22;2136;48.502;9.194;2023-12-04T01:06:22;-4.20;68.90
4245;DHT22;2136;48.502;9.194;2023-12-04T01:08:49;-4.20;69.10
4245;DHT22;2136;48.502;9.194;2023-12-04T01:11:17;-4.20;69.40
4245;DHT22;2136;48.502;9.194;2023-12-04T01:13:45;-4.20;69.60
4245;DHT22;2136;48.502;9.194;2023-12-04T01:16:12;-4.30;69.60
4245;DHT22;2136;48.502;9.194;2023-12-04T01:18:40;-4.20;69.90
4245;DHT22;2136;48.502;9.194;2023-12-04T01:21:08;-4.20;70.60
4245;DHT22;2136;48.502;9.194;2023-12-04T01:23:35;-4.20;70.90
4245;DHT22;2136;48.502;9.194;2023-12-04T01:26:03;-4.20;70.50
4245;DHT22;2136;48.502;9.194;2023-12-04T01:28:30;-4.20;70.10
4245;DHT22;2136;48.502;9.194;2023-12-04T01:30:57;-4.20;70.00
4245;DHT22;2136;48.502;9.194;2023-12-04T01:33:24;-4.20;70.10
4245;DHT22;2136;48.502;9.194;2023-12-04T01:35:51;-4.20;70.10
4245;DHT22;2136;48.502;9.194;2023-12-04T01:38:18;-4.20;70.00
4245;DHT22;2136;48.502;9.194;2023-12-04T01:40:45;-4.20;69.80
4245;DHT22;2136;48.502;9.194;2023-12-04T01:43:11;-4.20;69.90
4245;DHT22;2136;48.502;9.194;2023-12-04T01:45:38;-4.20;69.80
4245;DHT22;2136;48.502;9.194;2023-12-04T01:48:06;-4.20;69.80
4245;DHT22;2136;48.502;9.194;2023-12-04T01:50:35;-4.20;70.00
4245;DHT22;2136;48.502;9.194;2023-12-04T01:53:02;-4.20;70.00
4245;DHT22;2136;48.502;9.194;2023-12-04T01:55:31;-4.20;69.90
4245;DHT22;2136;48.502;9.194;2023-12-04T01:58:00;-4.20;70.00
4245;DHT22;2136;48.502;9.194;2023-12-04T02:00:28;-4.10;70.20
4245;DHT22;2136;48.502;9.194;2023-12-04T02:02:56;-4.10;70.10
4245;DHT22;2136;48.502;9.194;2023-12-04T02:05:24;-4.10;69.90
4245;DHT22;2136;48.502;9.194;2023-12-04T02:07:52;-4.10;70.10
4245;DHT22;2136;48.502;9.194;2023-12-04T02:10:19;-4.10;70.00
4245;DHT22;2136;48.502;9.194;2023-12-04T02:12:47;-4.10;69.70
4245;DHT22;2136;48.502;9.194;2023-12-04T02:15:14;-4.10;69.40
4245;DHT22;2136;48.502;9.194;2023-12-04T02:17:43;-4.10;69.30
4245;DHT22;2136;48.502;9.194;2023-12-04T02:20:12;-4.20;69.50
4245;DHT22;2136;48.502;9.194;2023-12-04T02:22:39;-4.20;69.40
4245;DHT22;2136;48.502;9.194;2023-12-04T02:25:08;-4.20;69.20
4245;DHT22;2136;48.502;9.194;2023-12-04T02:27:39;-4.20;69.40
4245;DHT22;2136;48.502;9.194;2023-12-04T02:30:11;-4.20;69.20
4245;DHT22;2136;48.502;9.194;2023-12-04T02:32:42;-4.20;69.00
4245;DHT22;2136;48.502;9.194;2023-12-04T02:35:11;-4.20;68.60
4245;DHT22;2136;48.502;9.194;2023-12-04T02:37:40;-4.30;68.80
4245;DHT22;2136;48.502;9.194;2023-12-04T02:40:11;-4.20;69.10
4245;DHT22;2136;48.502;9.194;2023-12-04T02:42:39;-4.20;69.50
4245;DHT22;2136;48.502;9.194;2023-12-04T02:45:07;-4.20;69.80
4245;DHT22;2136;48.502;9.194;2023-12-04T02:47:34;-4.20;69.90
4245;DHT22;2136;48.502;9.194;2023-12-04T02:50:00;-4.20;69.80
4245;DHT22;2136;48.502;9.194;2023-12-04T02:52:27;-4.20;69.50
4245;DHT22;2136;48.502;9.194;2023-12-04T02:54:54;-4.20;69.60
4245;DHT22;2136;48.502;9.194;2023-12-04T02:57:22;-4.20;69.80
4245;DHT22;2136;48.502;9.194;2023-12-04T02:59:49;-4.20;69.80
4245;DHT22;2136;48.502;9.194;2023-12-04T03:02:16;-4.20;70.70
4245;DHT22;2136;48.502;9.194;2023-12-04T03:04:43;-4.20;69.80
4245;DHT22;2136;48.502;9.194;2023-12-04T03:07:09;-4.20;69.60
4245;DHT22;2136;48.502;9.194;2023-12-04T03:09:36;-4.20;69.60
4245;DHT22;2136;48.502;9.194;2023-12-04T03:12:03;-4.20;69.50
4245;DHT22;2136;48.502;9.194;2023-12-04T03:14:32;-4.20;69.80
4245;DHT22;2136;48.502;9.194;2023-12-04T03:16:58;-4.20;69.80
4245;DHT22;2136;48.502;9.194;2023-12-04T03:19:25;-4.20;69.70
4245;DHT22;2136;48.502;9.194;2023-12-04T03:21:52;-4.20;69.90
4245;DHT22;2136;48.502;9.194;2023-12-04T03:24:19;-4.20;70.10
4245;DHT22;2136;48.502;9.194;2023-12-04T03:26:46;-4.20;70.20
4245;DHT22;2136;48.502;9.194;2023-12-04T03:29:12;-4.20;70.40
4245;DHT22;2136;48.502;9.194;2023-12-04T03:31:41;-4.10;70.50
4245;DHT22;2136;48.502;9.194;2023-12-04T03:34:07;-4.10;71.00
4245;DHT22;2136;48.502;9.194;2023-12-04T03:36:34;-4.10;70.10
4245;DHT22;2136;48.502;9.194;2023-12-04T03:39:01;-4.10;69.90
4245;DHT22;2136;48.502;9.194;2023-12-04T03:41:28;-4.10;69.80
4245;DHT22;2136;48.502;9.194;2023-12-04T03:43:55;-4.10;69.80
4245;DHT22;2136;48.502;9.194;2023-12-04T03:46:21;-4.10;69.60
4245;DHT22;2136;48.502;9.194;2023-12-04T03:48:50;-4.10;69.30
4245;DHT22;2136;48.502;9.194;2023-12-04T03:51:17;-4.10;69.10
4245;DHT22;2136;48.502;9.194;2023-12-04T03:53:43;-4.20;68.70
4245;DHT22;2136;48.502;9.194;2023-12-04T03:56:10;-4.20;68.20
4245;DHT22;2136;48.502;9.194;2023-12-04T03:58:37;-4.20;68.80
4245;DHT22;2136;48.502;9.194;2023-12-04T04:01:05;-4.20;68.30
4245;DHT22;2136;48.502;9.194;2023-12-04T04:03:32;-4.30;68.10
4245;DHT22;2136;48.502;9.194;2023-12-04T04:06:00;-4.30;68.00
4245;DHT22;2136;48.502;9.194;2023-12-04T04:08:27;-4.30;68.00
4245;DHT22;2136;48.502;9.194;2023-12-04T04:10:54;-4.30;68.10
4245;DHT22;2136;48.502;9.194;2023-12-04T04:13:21;-4.20;68.10
4245;DHT22;2136;48.502;9.194;2023-12-04T04:15:47;-4.20;68.30
4245;DHT22;2136;48.502;9.194;2023-12-04T04:18:13;-4.30;68.40
4245;DHT22;2136;48.502;9.194;2023-12-04T04:20:40;-4.30;68.70
4245;DHT22;2136;48.502;9.194;2023-12-04T04:23:08;-4.20;69.00
4245;DHT22;2136;48.502;9.194;2023-12-04T04:25:35;-4.20;69.60
4245;DHT22;2136;48.502;9.194;2023-12-04T04:28:02;-4.20;69.50
4245;DHT22;2136;48.502;9.194;2023-12-04T04:30:29;-4.10;69.40
4245;DHT22;2136;48.502;9.194;2023-12-04T04:32:55;-4.10;69.40
4245;DHT22;2136;48.502;9.194;2023-12-04T04:35:22;-4.10;69.50
4245;DHT22;2136;48.502;9.194;2023-12-04T04:37:50;-4.10;69.60
4245;DHT22;2136;48.502;9.194;2023-12-04T04:40:18;-4.00;69.70
4245;DHT22;2136;48.502;9.194;2023-12-04T04:42:45;-4.00;69.60
4245;DHT22;2136;48.502;9.194;2023-12-04T04:45:13;-4.00;69.90
4245;DHT22;2136;48.502;9.194;2023-12-04T04:47:39;-4.00;69.70
4245;DHT22;2136;48.502;9.194;2023-12-04T04:50:07;-4.00;69.70
4245;DHT22;2136;48.502;9.194;2023-12-04T04:52:34;-3.90;69.90
4245;DHT22;2136;48.502;9.194;2023-12-04T04:55:00;-3.90;69.90
4245;DHT22;2136;48.502;9.194;2023-12-04T04:57:29;-3.90;69.70
4245;DHT22;2136;48.502;9.194;2023-12-04T04:59:55;-3.80;69.90
4245;DHT22;2136;48.502;9.194;2023-12-04T05:02:22;-3.80;69.90
4245;DHT22;2136;48.502;9.194;2023-12-04T05:04:49;-3.80;70.70
4245;DHT22;2136;48.502;9.194;2023-12-04T05:07:16;-3.80;70.00
4245;DHT22;2136;48.502;9.194;2023-12-04T05:09:43;-3.70;70.10
4245;DHT22;2136;48.502;9.194;2023-12-04T05:12:10;-3.70;70.10
4245;DHT22;2136;48.502;9.194;2023-12-04T05:14:38;-3.70;70.00
4245;DHT22;2136;48.502;9.194;2023-12-04T05:17:05;-3.70;70.00
4245;DHT22;2136;48.502;9.194;2023-12-04T05:19:32;-3.70;70.00
4245;DHT22;2136;48.502;9.194;2023-12-04T05:21:59;-3.70;69.80
4245;DHT22;2136;48.502;9.194;2023-12-04T05:24:25;-3.70;69.90
4245;DHT22;2136;48.502;9.194;2023-12-04T05:26:52;-3.60;69.90
4245;DHT22;2136;48.502;9.194;2023-12-04T05:29:19;-3.60;70.00
4245;DHT22;2136;48.502;9.194;2023-12-04T05:31:47;-3.60;69.90
4245;DHT22;2136;48.502;9.194;2023-12-04T05:34:14;-3.60;70.10
4245;DHT22;2136;48.502;9.194;2023-12-04T05:36:41;-3.60;70.20
4245;DHT22;2136;48.502;9.194;2023-12-04T05:39:08;-3.50;70.30
4245;DHT22;2136;48.502;9.194;2023-12-04T05:41:35;-3.50;70.40
4245;DHT22;2136;48.502;9.194;2023-12-04T05:44:02;-3.50;70.50
4245;DHT22;2136;48.502;9.194;2023-12-04T05:46:28;-3.40;70.70
4245;DHT22;2136;48.502;9.194;2023-12-04T05:48:57;-3.40;70.70
4245;DHT22;2136;48.502;9.194;2023-12-04T05:51:23;-3.40;70.40
4245;DHT22;2136;48.502;9.194;2023-12-04T05:53:50;-3.40;70.20
4245;DHT22;2136;48.502;9.194;2023-12-04T05:56:17;-3.40;70.00
4245;DHT22;2136;48.502;9.194;2023-12-04T05:58:44;-3.40;70.00
4245;DHT22;2136;48.502;9.194;2023-12-04T06:01:10;-3.40;69.90
4245;DHT22;2136;48.502;9.194;2023-12-04T06:03:37;-3.40;69.60
4245;DHT22;2136;48.502;9.194;2023-12-04T06:06:06;-3.40;69.50
4245;DHT22;2136;48.502;9.194;2023-12-04T06:08:33;-3.40;69.70
4245;DHT22;2136;48.502;9.194;2023-12-04T06:11:00;-3.40;69.80
4245;DHT22;2136;48.502;9.194;2023-12-04T06:13:26;-3.40;69.60
4245;DHT22;2136;48.502;9.194;2023-12-04T06:15:53;-3.50;69.20
4245;DHT22;2136;48.502;9.194;2023-12-04T06:18:20;-3.50;69.30
4245;DHT22;2136;48.502;9.194;2023-12-04T06:20:47;-3.50;69.10
4245;DHT22;2136;48.502;9.194;2023-12-04T06:23:16;-3.50;69.30
4245;DHT22;2136;48.502;9.194;2023-12-04T06:25:44;-3.50;69.70
4245;DHT22;2136;48.502;9.194;2023-12-04T06:28:11;-3.50;69.60
4245;DHT22;2136;48.502;9.194;2023-12-04T06:30:39;-3.50;69.80
4245;DHT22;2136;48.502;9.194;2023-12-04T06:33:07;-3.50;70.00
4245;DHT22;2136;48.502;9.194;2023-12-04T06:35:35;-3.40;70.20
4245;DHT22;2136;48.502;9.194;2023-12-04T06:38:06;-3.40;70.40
4245;DHT22;2136;48.502;9.194;2023-12-04T06:40:35;-3.40;70.30
4245;DHT22;2136;48.502;9.194;2023-12-04T06:43:03;-3.30;70.20
4245;DHT22;2136;48.502;9.194;2023-12-04T06:45:30;-3.30;70.10
4245;DHT22;2136;48.502;9.194;2023-12-04T06:47:59;-3.30;70.00
4245;DHT22;2136;48.502;9.194;2023-12-04T06:50:26;-3.30;70.10
4245;DHT22;2136;48.502;9.194;2023-12-04T06:52:52;-3.30;70.20
4245;DHT22;2136;48.502;9.194;2023-12-04T06:55:19;-3.30;70.30
4245;DHT22;2136;48.502;9.194;2023-12-04T06:57:47;-3.30;70.40
4245;DHT22;2136;48.502;9.194;2023-12-04T07:00:15;-3.20;70.70
4245;DHT22;2136;48.502;9.194;2023-12-04T07:02:42;-3.20;70.90
4245;DHT22;2136;48.502;9.194;2023-12-04T07:05:09;-3.20;70.80
4245;DHT22;2136;48.502;9.194;2023-12-04T07:07:36;-3.20;70.80
4245;DHT22;2136;48.502;9.194;2023-12-04T07:10:03;-3.10;70.90
4245;DHT22;2136;48.502;9.194;2023-12-04T07:12:30;-3.10;71.00
4245;DHT22;2136;48.502;9.194;2023-12-04T07:14:58;-3.00;71.10
4245;DHT22;2136;48.502;9.194;2023-12-04T07:17:25;-3.00;71.10
4245;DHT22;2136;48.502;9.194;2023-12-04T07:19:52;-2.90;71.10
4245;DHT22;2136;48.502;9.194;2023-12-04T07:22:19;-2.90;71.10
4245;DHT22;2136;48.502;9.194;2023-12-04T07:24:46;-2.80;71.00
4245;DHT22;2136;48.502;9.194;2023-12-04T07:27:12;-2.80;70.70
4245;DHT22;2136;48.502;9.194;2023-12-04T07:29:39;-2.70;70.80
4245;DHT22;2136;48.502;9.194;2023-12-04T07:32:08;-2.70;70.30
4245;DHT22;2136;48.502;9.194;2023-12-04T07:34:34;-2.70;70.20
4245;DHT22;2136;48.502;9.194;2023-12-04T07:37:02;-2.60;70.40
4245;DHT22;2136;48.502;9.194;2023-12-04T07:39:29;-2.50;70.10
4245;DHT22;2136;48.502;9.194;2023-12-04T07:41:56;-2.50;69.90
4245;DHT22;2136;48.502;9.194;2023-12-04T07:44:22;-2.50;69.80
4245;DHT22;2136;48.502;9.194;2023-12-04T07:46:49;-2.40;69.80
4245;DHT22;2136;48.502;9.194;2023-12-04T07:49:17;-2.40;69.60
4245;DHT22;2136;48.502;9.194;2023-12-04T07:51:44;-2.30;69.50
4245;DHT22;2136;48.502;9.194;2023-12-04T07:54:11;-2.30;69.40
4245;DHT22;2136;48.502;9.194;2023-12-04T07:56:38;-2.30;69.50
4245;DHT22;2136;48.502;9.194;2023-12-04T07:59:05;-2.20;69.40
4245;DHT22;2136;48.502;9.194;2023-12-04T08:01:31;-2.20;69.40
4245;DHT22;2136;48.502;9.194;2023-12-04T08:03:58;-2.20;69.40
4245;DHT22;2136;48.502;9.194;2023-12-04T08:06:26;-2.10;69.50
4245;DHT22;2136;48.502;9.194;2023-12-04T08:08:53;-2.10;69.30
4245;DHT22;2136;48.502;9.194;2023-12-04T08:11:21;-2.00;69.30
4245;DHT22;2136;48.502;9.194;2023-12-04T08:13:47;-2.00;69.30
4245;DHT22;2136;48.502;9.194;2023-12-04T08:16:15;-2.00;69.10
4245;DHT22;2136;48.502;9.194;2023-12-04T08:18:42;-1.90;69.60
4245;DHT22;2136;48.502;9.194;2023-12-04T08:21:09;-1.80;69.30
4245;DHT22;2136;48.502;9.194;2023-12-04T08:23:37;-1.80;69.10
4245;DHT22;2136;48.502;9.194;2023-12-04T08:26:04;-1.80;69.10
4245;DHT22;2136;48.502;9.194;2023-12-04T08:28:33;-1.80;69.10
4245;DHT22;2136;48.502;9.194;2023-12-04T08:31:00;-1.80;70.00
4245;DHT22;2136;48.502;9.194;2023-12-04T08:33:27;-1.70;69.90
4245;DHT22;2136;48.502;9.194;2023-12-04T08:35:54;-1.70;70.00
4245;DHT22;2136;48.502;9.194;2023-12-04T08:38:21;-1.70;70.10
4245;DHT22;2136;48.502;9.194;2023-12-04T08:40:49;-1.60;70.40
4245;DHT22;2136;48.502;9.194;2023-12-04T08:43:16;-1.60;70.50
4245;DHT22;2136;48.502;9.194;2023-12-04T08:45:44;-1.50;70.70
4245;DHT22;2136;48.502;9.194;2023-12-04T08:48:11;-1.40;71.00
4245;DHT22;2136;48.502;9.194;2023-12-04T08:50:38;-1.30;71.10
4245;DHT22;2136;48.502;9.194;2023-12-04T08:53:05;-1.20;71.60
4245;DHT22;2136;48.502;9.194;2023-12-04T08:55:32;-1.10;71.70
4245;DHT22;2136;48.502;9.194;2023-12-04T08:58:00;-1.10;71.60
4245;DHT22;2136;48.502;9.194;2023-12-04T09:00:27;-1.00;72.00
4245;DHT22;2136;48.502;9.194;2023-12-04T09:02:53;-0.90;72.00
4245;DHT22;2136;48.502;9.194;2023-12-04T09:05:21;-0.80;71.80
4245;DHT22;2136;48.502;9.194;2023-12-04T09:07:48;-0.70;71.70
4245;DHT22;2136;48.502;9.194;2023-12-04T09:10:14;-0.60;71.50
4245;DHT22;2136;48.502;9.194;2023-12-04T09:12:42;-0.60;71.00
4245;DHT22;2136;48.502;9.194;2023-12-04T09:15:10;-0.50;70.90
4245;DHT22;2136;48.502;9.194;2023-12-04T09:17:37;-0.50;71.40
4245;DHT22;2136;48.502;9.194;2023-12-04T09:20:05;-0.40;71.50
4245;DHT22;2136;48.502;9.194;2023-12-04T09:22:32;-0.40;71.30
4245;DHT22;2136;48.502;9.194;2023-12-04T09:25:00;-0.30;70.90
4245;DHT22;2136;48.502;9.194;2023-12-04T09:27:27;-0.30;70.30
4245;DHT22;2136;48.502;9.194;2023-12-04T09:29:54;-0.20;69.80
4245;DHT22;2136;48.502;9.194;2023-12-04T09:32:22;-0.20;69.50
4245;DHT22;2136;48.502;9.194;2023-12-04T09:34:48;-0.20;69.30
4245;DHT22;2136;48.502;9.194;2023-12-04T09:37:15;-0.20;69.30
4245;DHT22;2136;48.502;9.194;2023-12-04T09:39:42;-0.20;69.00
4245;DHT22;2136;48.502;9.194;2023-12-04T09:42:09;-0.10;68.90
4245;DHT22;2136;48.502;9.194;2023-12-04T09:44:37;-0.20;68.70
4245;DHT22;2136;48.502;9.194;2023-12-04T09:47:05;-0.20;68.60
4245;DHT22;2136;48.502;9.194;2023-12-04T09:49:34;-0.20;68.60
4245;DHT22;2136;48.502;9.194;2023-12-04T09:52:01;-0.20;68.60
4245;DHT22;2136;48.502;9.194;2023-12-04T09:54:29;-0.20;69.30
4245;DHT22;2136;48.502;9.194;2023-12-04T09:56:56;-0.20;68.60
4245;DHT22;2136;48.502;9.194;2023-12-04T09:59:24;-0.20;68.90
4245;DHT22;2136;48.502;9.194;2023-12-04T10:01:51;-0.20;69.10
4245;DHT22;2136;48.502;9.194;2023-12-04T10:04:19;-0.10;69.30
4245;DHT22;2136;48.502;9.194;2023-12-04T10:06:49;-0.10;69.60
4245;DHT22;2136;48.502;9.194;2023-12-04T10:09:17;0.00;70.10
4245;DHT22;2136;48.502;9.194;2023-12-04T10:11:45;0.10;70.30
4245;DHT22;2136;48.502;9.194;2023-12-04T10:14:15;0.20;70.30
4245;DHT22;2136;48.502;9.194;2023-12-04T10:16:43;0.30;70.50
4245;DHT22;2136;48.502;9.194;2023-12-04T10:19:18;0.40;70.40
4245;DHT22;2136;48.502;9.194;2023-12-04T10:21:48;0.60;70.80
4245;DHT22;2136;48.502;9.194;2023-12-04T10:24:30;0.70;71.20
4245;DHT22;2136;48.502;9.194;2023-12-04T10:26:59;0.80;71.20
4245;DHT22;2136;48.502;9.194;2023-12-04T10:29:27;0.80;71.60
4245;DHT22;2136;48.502;9.194;2023-12-04T10:31:55;0.90;70.60
4245;DHT22;2136;48.502;9.194;2023-12-04T10:34:25;1.00;70.10
4245;DHT22;2136;48.502;9.194;2023-12-04T10:36:53;1.00;69.80
4245;DHT22;2136;48.502;9.194;2023-12-04T10:39:23;1.00;69.30
4245;DHT22;2136;48.502;9.194;2023-12-04T10:42:01;1.10;69.70
4245;DHT22;2136;48.502;9.194;2023-12-04T10:44:30;1.10;68.40
4245;DHT22;2136;48.502;9.194;2023-12-04T10:46:57;1.10;68.10
4245;DHT22;2136;48.502;9.194;2023-12-04T10:49:27;1.10;67.90
4245;DHT22;2136;48.502;9.194;2023-12-04T10:51:56;1.10;68.40
4245;DHT22;2136;48.502;9.194;2023-12-04T10:54:25;1.20;68.30
4245;DHT22;2136;48.502;9.194;2023-12-04T10:56:52;1.20;68.30
4245;DHT22;2136;48.502;9.194;2023-12-04T10:59:27;1.30;68.60
4245;DHT22;2136;48.502;9.194;2023-12-04T11:02:00;1.40;69.10
4245;DHT22;2136;48.502;9.194;2023-12-04T11:04:31;1.50;69.30
4245;DHT22;2136;48.502;9.194;2023-12-04T11:07:02;1.50;69.60
4245;DHT22;2136;48.502;9.194;2023-12-04T11:09:31;1.50;69.90
4245;DHT22;2136;48.502;9.194;2023-12-04T11:12:05;1.60;70.50
4245;DHT22;2136;48.502;9.194;2023-12-04T11:14:37;1.50;70.70
4245;DHT22;2136;48.502;9.194;2023-12-04T11:17:12;1.50;71.10
4245;DHT22;2136;48.502;9.194;2023-12-04T11:19:47;1.60;71.10
4245;DHT22;2136;48.502;9.194;2023-12-04T11:22:15;1.70;71.10
4245;DHT22;2136;48.502;9.194;2023-12-04T11:24:46;1.90;71.20
4245;DHT22;2136;48.502;9.194;2023-12-04T11:27:14;2.00;70.60
4245;DHT22;2136;48.502;9.194;2023-12-04T11:29:41;2.10;70.40
4245;DHT22;2136;48.502;9.194;2023-12-04T11:32:13;2.20;70.30
4245;DHT22;2136;48.502;9.194;2023-12-04T11:34:47;2.30;70.20
4245;DHT22;2136;48.502;9.194;2023-12-04T11:37:16;2.40;70.10
4245;DHT22;2136;48.502;9.194;2023-12-04T11:39:45;2.70;69.60
4245;DHT22;2136;48.502;9.194;2023-12-04T11:42:13;2.80;68.80
4245;DHT22;2136;48.502;9.194;2023-12-04T11:44:41;2.90;68.10
4245;DHT22;2136;48.502;9.194;2023-12-04T11:47:08;2.90;67.80
4245;DHT22;2136;48.502;9.194;2023-12-04T11:49:35;2.90;67.40
4245;DHT22;2136;48.502;9.194;2023-12-04T11:52:03;2.90;67.40
4245;DHT22;2136;48.502;9.194;2023-12-04T11:54:55;2.90;67.40
4245;DHT22;2136;48.502;9.194;2023-12-04T11:57:24;2.90;67.40
4245;DHT22;2136;48.502;9.194;2023-12-04T11:59:51;2.90;67.50
4245;DHT22;2136;48.502;9.194;2023-12-04T12:02:18;2.90;67.60
4245;DHT22;2136;48.502;9.194;2023-12-04T12:04:45;2.90;67.60
4245;DHT22;2136;48.502;9.194;2023-12-04T12:07:12;3.00;67.60
4245;DHT22;2136;48.502;9.194;2023-12-04T12:09:39;3.20;67.80
4245;DHT22;2136;48.502;9.194;2023-12-04T12:12:06;3.40;67.80
4245;DHT22;2136;48.502;9.194;2023-12-04T12:14:35;3.60;67.90
4245;DHT22;2136;48.502;9.194;2023-12-04T12:17:02;3.70;67.40
4245;DHT22;2136;48.502;9.194;2023-12-04T12:19:29;3.80;67.20
4245;DHT22;2136;48.502;9.194;2023-12-04T12:21:56;4.00;66.90
4245;DHT22;2136;48.502;9.194;2023-12-04T12:24:23;3.90;66.80
4245;DHT22;2136;48.502;9.194;2023-12-04T12:26:51;4.00;66.40
4245;DHT22;2136;48.502;9.194;2023-12-04T12:29:18;4.00;66.00
4245;DHT22;2136;48.502;9.194;2023-12-04T12:31:46;3.90;65.80
4245;DHT22;2136;48.502;9.194;2023-12-04T12:34:13;3.90;65.50
4245;DHT22;2136;48.502;9.194;2023-12-04T12:36:40;4.00;65.60
4245;DHT22;2136;48.502;9.194;2023-12-04T12:39:07;3.80;65.30
4245;DHT22;2136;48.502;9.194;2023-12-04T12:41:34;3.90;65.30
4245;DHT22;2136;48.502;9.194;2023-12-04T12:44:01;3.80;65.40
4245;DHT22;2136;48.502;9.194;2023-12-04T12:46:29;3.70;65.10
4245;DHT22;2136;48.502;9.194;2023-12-04T12:48:57;3.60;64.90
4245;DHT22;2136;48.502;9.194;2023-12-04T12:51:25;3.50;64.70
4245;DHT22;2136;48.502;9.194;2023-12-04T12:53:52;3.50;65.00
4245;DHT22;2136;48.502;9.194;2023-12-04T12:56:19;3.50;65.30
4245;DHT22;2136;48.502;9.194;2023-12-04T12:58:47;3.50;65.40
4245;DHT22;2136;48.502;9.194;2023-12-04T13:01:14;3.40;65.30
4245;DHT22;2136;48.502;9.194;2023-12-04T13:03:41;3.40;65.30
4245;DHT22;2136;48.502;9.194;2023-12-04T13:06:13;3.40;65.30
4245;DHT22;2136;48.502;9.194;2023-12-04T13:08:39;3.30;65.10
4245;DHT22;2136;48.502;9.194;2023-12-04T13:11:06;3.30;65.40
4245;DHT22;2136;48.502;9.194;2023-12-04T13:13:33;3.20;65.90
4245;DHT22;2136;48.502;9.194;2023-12-04T13:16:00;3.20;65.80
4245;DHT22;2136;48.502;9.194;2023-12-04T13:18:27;3.10;66.30
4245;DHT22;2136;48.502;9.194;2023-12-04T13:20:54;3.10;66.60
4245;DHT22;2136;48.502;9.194;2023-12-04T13:23:23;3.00;67.40
4245;DHT22;2136;48.502;9.194;2023-12-04T13:25:49;3.00;67.80
4245;DHT22;2136;48.502;9.194;2023-12-04T13:28:16;3.00;68.40
4245;DHT22;2136;48.502;9.194;2023-12-04T13:30:43;3.00;68.80
4245;DHT22;2136;48.502;9.194;2023-12-04T13:33:10;3.10;69.20
4245;DHT22;2136;48.502;9.194;2023-12-04T13:35:37;3.30;69.30
4245;DHT22;2136;48.502;9.194;2023-12-04T13:38:04;3.10;69.20
4245;DHT22;2136;48.502;9.194;2023-12-04T13:40:39;3.20;69.10
4245;DHT22;2136;48.502;9.194;2023-12-04T13:43:06;3.10;68.10
4245;DHT22;2136;48.502;9.194;2023-12-04T13:45:51;3.10;67.70
4245;DHT22;2136;48.502;9.194;2023-12-04T13:48:18;3.00;67.90
4245;DHT22;2136;48.502;9.194;2023-12-04T13:50:46;2.90;68.40
4245;DHT22;2136;48.502;9.194;2023-12-04T13:53:15;2.90;69.10
4245;DHT22;2136;48.502;9.194;2023-12-04T13:55:43;2.90;69.60
4245;DHT22;2136;48.502;9.194;2023-12-04T13:58:34;2.90;70.00
4245;DHT22;2136;48.502;9.194;2023-12-04T14:01:07;2.90;70.10
4245;DHT22;2136;48.502;9.194;2023-12-04T14:03:39;3.00;70.60
4245;DHT22;2136;48.502;9.194;2023-12-04T14:06:07;3.00;70.80
4245;DHT22;2136;48.502;9.194;2023-12-04T14:08:34;2.90;70.80
4245;DHT22;2136;48.502;9.194;2023-12-04T14:11:03;2.90;70.60
4245;DHT22;2136;48.502;9.194;2023-12-04T14:13:31;2.80;70.80
4245;DHT22;2136;48.502;9.194;2023-12-04T14:15:58;2.80;71.50
4245;DHT22;2136;48.502;9.194;2023-12-04T14:18:25;2.80;71.60
4245;DHT22;2136;48.502;9.194;2023-12-04T14:20:52;2.80;71.60
4245;DHT22;2136;48.502;9.194;2023-12-04T14:23:19;2.80;72.10
4245;DHT22;2136;48.502;9.194;2023-12-04T14:25:47;2.80;72.50
4245;DHT22;2136;48.502;9.194;2023-12-04T14:28:15;2.80;72.80
4245;DHT22;2136;48.502;9.194;2023-12-04T14:30:42;2.80;72.90
4245;DHT22;2136;48.502;9.194;2023-12-04T14:33:10;2.70;72.50
4245;DHT22;2136;48.502;9.194;2023-12-04T14:35:36;2.70;72.40
4245;DHT22;2136;48.502;9.194;2023-12-04T14:38:03;2.70;72.60
4245;DHT22;2136;48.502;9.194;2023-12-04T14:40:30;2.60;72.70
4245;DHT22;2136;48.502;9.194;2023-12-04T14:42:57;2.60;73.00
4245;DHT22;2136;48.502;9.194;2023-12-04T14:45:26;2.50;73.00
4245;DHT22;2136;48.502;9.194;2023-12-04T14:47:53;2.50;72.90
4245;DHT22;2136;48.502;9.194;2023-12-04T14:50:22;2.50;73.20
4245;DHT22;2136;48.502;9.194;2023-12-04T14:52:50;2.40;73.60
4245;DHT22;2136;48.502;9.194;2023-12-04T14:55:18;2.40;73.80
4245;DHT22;2136;48.502;9.194;2023-12-04T14:58:01;2.40;74.00
4245;DHT22;2136;48.502;9.194;2023-12-04T15:01:11;2.40;74.40
4245;DHT22;2136;48.502;9.194;2023-12-04T15:04:08;2.30;74.80
4245;DHT22;2136;48.502;9.194;2023-12-04T15:06:52;2.30;75.00
4245;DHT22;2136;48.502;9.194;2023-12-04T15:09:53;2.30;75.90
4245;DHT22;2136;48.502;9.194;2023-12-04T15:12:37;2.30;76.00
4245;DHT22;2136;48.502;9.194;2023-12-04T15:15:29;2.30;76.50
4245;DHT22;2136;48.502;9.194;2023-12-04T15:18:07;2.30;77.00
4245;DHT22;2136;48.502;9.194;2023-12-04T15:20:51;2.20;77.50
4245;DHT22;2136;48.502;9.194;2023-12-04T15:23:17;2.20;78.30
4245;DHT22;2136;48.502;9.194;2023-12-04T15:25:45;2.20;78.80
4245;DHT22;2136;48.502;9.194;2023-12-04T15:28:10;2.20;78.70
4245;DHT22;2136;48.502;9.194;2023-12-04T15:30:39;2.20;79.20
4245;DHT22;2136;48.502;9.194;2023-12-04T15:33:07;2.20;79.40
4245;DHT22;2136;48.502;9.194;2023-12-04T15:35:34;2.20;79.60
4245;DHT22;2136;48.502;9.194;2023-12-04T15:38:00;2.20;79.80
4245;DHT22;2136;48.502;9.194;2023-12-04T15:40:27;2.20;80.20
4245;DHT22;2136;48.502;9.194;2023-12-04T15:42:53;2.20;80.90
4245;DHT22;2136;48.502;9.194;2023-12-04T15:45:20;2.30;81.50
4245;DHT22;2136;48.502;9.194;2023-12-04T15:47:47;2.30;80.90
4245;DHT22;2136;48.502;9.194;2023-12-04T15:50:15;2.30;81.50
4245;DHT22;2136;48.502;9.194;2023-12-04T15:52:41;2.30;82.90
4245;DHT22;2136;48.502;9.194;2023-12-04T15:55:09;2.40;82.00
4245;DHT22;2136;48.502;9.194;2023-12-04T15:57:36;2.40;81.90
4245;DHT22;2136;48.502;9.194;2023-12-04T16:00:03;2.40;82.20
4245;DHT22;2136;48.502;9.194;2023-12-04T16:02:32;2.40;82.50
4245;DHT22;2136;48.502;9.194;2023-12-04T16:04:58;2.40;82.70
4245;DHT22;2136;48.502;9.194;2023-12-04T16:07:26;2.50;85.20
4245;DHT22;2136;48.502;9.194;2023-12-04T16:09:53;2.60;84.30
4245;DHT22;2136;48.502;9.194;2023-12-04T16:12:22;2.60;83.10